createdAt,value
2022-11-30T00:01:16.341Z,54.22
2022-11-30T00:03:43.894Z,55.50
2022-11-30T00:06:11.910Z,54.22
2022-11-30T00:08:38.391Z,48.25
2022-11-30T00:11:11.916Z,61.42
2022-11-30T00:13:38.299Z,54.03
2022-11-30T00:16:04.969Z,58.60
2022-11-30T00:18:31.379Z,53.15
2022-11-30T00:21:01.725Z,50.10
2022-11-30T00:23:35.037Z,51.25
2022-11-30T00:26:02.737Z,51.70
2022-11-30T00:28:30.504Z,52.92
2022-11-30T00:31:00.897Z,51.75
2022-11-30T00:33:28.033Z,44.33
2022-11-30T00:36:05.925Z,51.85
2022-11-30T00:38:32.769Z,48.08
2022-11-30T00:41:00.298Z,54.60
2022-11-30T00:43:26.850Z,58.88
2022-11-30T00:45:53.555Z,55.60
2022-11-30T00:48:20.037Z,50.35
2022-11-30T00:50:47.629Z,47.50
2022-11-30T00:53:14.042Z,44.35
2022-11-30T00:55:40.444Z,49.78
2022-11-30T00:58:06.846Z,47.65
2022-11-30T01:00:33.277Z,45.92
2022-11-30T01:02:59.673Z,46.45
2022-11-30T01:05:26.267Z,51.30
2022-11-30T01:07:52.743Z,55.05
2022-11-30T01:10:19.193Z,54.10
2022-11-30T01:12:45.643Z,49.15
2022-11-30T01:15:12.061Z,45.45
2022-11-30T01:17:38.485Z,47.38
2022-11-30T01:20:06.442Z,48.88
2022-11-30T01:22:32.869Z,48.55
2022-11-30T01:24:59.311Z,51.85
2022-11-30T01:27:25.751Z,46.33
2022-11-30T01:29:52.167Z,47.97
2022-11-30T01:32:18.578Z,51.13
2022-11-30T01:34:45.217Z,48.00
2022-11-30T01:37:11.888Z,48.63
2022-11-30T01:39:38.311Z,54.03
2022-11-30T01:42:05.981Z,53.13
2022-11-30T01:44:32.296Z,47.35
2022-11-30T01:47:03.485Z,52.15
2022-11-30T01:49:30.433Z,53.03
2022-11-30T01:52:01.375Z,55.35
2022-11-30T01:54:46.465Z,51.92
2022-11-30T01:57:26.296Z,50.05
2022-11-30T01:59:53.750Z,48.78
2022-11-30T02:02:20.828Z,48.72
2022-11-30T02:04:47.440Z,50.10
2022-11-30T02:07:13.991Z,48.33
2022-11-30T02:09:42.564Z,46.42
2022-11-30T02:12:11.505Z,49.65
2022-11-30T02:14:42.159Z,50.20
2022-11-30T02:17:14.737Z,50.05
2022-11-30T02:20:12.206Z,49.72
2022-11-30T02:23:09.189Z,49.47
2022-11-30T02:25:44.192Z,53.80
2022-11-30T02:28:44.696Z,44.17
2022-11-30T02:31:13.223Z,49.90
2022-11-30T02:33:39.666Z,45.20
2022-11-30T02:36:06.405Z,49.20
2022-11-30T02:38:32.817Z,53.75
2022-11-30T02:40:59.224Z,52.90
2022-11-30T02:43:26.276Z,51.75
2022-11-30T02:45:55.654Z,53.40
2022-11-30T02:48:28.137Z,51.35
2022-11-30T02:50:56.530Z,53.50
2022-11-30T02:53:22.934Z,51.10
2022-11-30T02:55:49.392Z,48.00
2022-11-30T02:58:15.769Z,47.63
2022-11-30T03:00:42.218Z,60.40
2022-11-30T03:03:08.676Z,49.92
2022-11-30T03:05:35.133Z,48.08
2022-11-30T03:08:01.600Z,47.30
2022-11-30T03:10:28.152Z,55.83
2022-11-30T03:12:58.103Z,56.83
2022-11-30T03:17:50.766Z,48.58
2022-11-30T03:20:17.221Z,59.70
2022-11-30T03:22:44.093Z,52.58
2022-11-30T03:25:10.553Z,51.80
2022-11-30T03:27:36.953Z,52.20
2022-11-30T03:30:03.637Z,53.65
2022-11-30T03:32:30.058Z,51.20
2022-11-30T03:34:56.622Z,53.60
2022-11-30T03:37:23.017Z,57.58
2022-11-30T03:39:53.544Z,53.60
2022-11-30T03:42:22.941Z,53.28
2022-11-30T03:44:49.477Z,59.15
2022-11-30T03:47:15.929Z,52.40
2022-11-30T03:49:42.299Z,60.60
2022-11-30T03:52:08.746Z,52.25
2022-11-30T03:54:35.165Z,55.85
2022-11-30T03:57:01.578Z,51.38
2022-11-30T03:59:27.981Z,56.38
2022-11-30T04:01:54.419Z,54.50
2022-11-30T04:04:20.828Z,49.65
2022-11-30T04:06:47.318Z,63.00
2022-11-30T04:09:13.742Z,51.90
2022-11-30T04:11:40.160Z,54.30
2022-11-30T04:14:06.554Z,59.10
2022-11-30T04:16:32.996Z,54.65
2022-11-30T04:18:59.525Z,55.65
2022-11-30T04:21:25.918Z,54.72
2022-11-30T04:23:52.321Z,56.80
2022-11-30T04:26:18.736Z,59.53
2022-11-30T04:28:45.227Z,56.13
2022-11-30T04:31:11.735Z,55.08
2022-11-30T04:33:38.236Z,63.15
2022-11-30T04:36:05.616Z,52.67
2022-11-30T04:38:32.314Z,55.75
2022-11-30T04:40:58.741Z,47.80
2022-11-30T04:43:25.275Z,59.05
2022-11-30T04:45:51.747Z,54.47
2022-11-30T04:48:18.516Z,55.78
2022-11-30T04:50:44.992Z,57.50
2022-11-30T04:53:11.571Z,52.90
2022-11-30T04:55:38.137Z,54.97
2022-11-30T04:58:05.396Z,53.35
2022-11-30T05:00:32.110Z,57.28
2022-11-30T05:02:58.541Z,54.25
2022-11-30T05:05:24.946Z,57.00
2022-11-30T05:07:55.049Z,56.25
2022-11-30T05:10:21.582Z,56.45
2022-11-30T05:12:48.015Z,60.35
2022-11-30T05:15:14.471Z,57.80
2022-11-30T05:17:40.923Z,53.25
2022-11-30T05:20:07.985Z,51.53
2022-11-30T05:22:34.398Z,56.97
2022-11-30T05:25:00.929Z,57.75
2022-11-30T05:27:27.358Z,56.40
2022-11-30T05:29:53.740Z,53.08
2022-11-30T05:32:20.169Z,62.08
2022-11-30T05:34:51.019Z,61.25
2022-11-30T05:37:18.572Z,58.45
2022-11-30T05:39:45.015Z,64.68
2022-11-30T05:42:11.416Z,70.28
2022-11-30T05:44:37.878Z,60.50
2022-11-30T05:47:04.393Z,64.88
2022-11-30T05:49:30.835Z,60.42
2022-11-30T05:51:57.269Z,65.40
2022-11-30T05:54:23.658Z,57.78
2022-11-30T05:56:54.423Z,57.85
2022-11-30T05:59:21.525Z,60.00
2022-11-30T06:01:48.048Z,57.50
2022-11-30T06:04:14.537Z,62.83
2022-11-30T06:06:40.954Z,61.95
2022-11-30T06:09:07.368Z,61.55
2022-11-30T06:11:33.835Z,65.60
2022-11-30T06:14:00.212Z,61.70
2022-11-30T06:16:26.705Z,61.45
2022-11-30T06:18:53.152Z,67.18
2022-11-30T06:21:24.103Z,54.53
2022-11-30T06:23:50.966Z,63.97
2022-11-30T06:26:17.448Z,69.05
2022-11-30T06:28:47.892Z,59.03
2022-11-30T06:31:15.126Z,60.42
2022-11-30T06:33:41.627Z,61.97
2022-11-30T06:36:08.239Z,65.95
2022-11-30T06:38:34.637Z,59.83
2022-11-30T06:41:09.033Z,68.05
2022-11-30T06:43:36.182Z,67.45
2022-11-30T06:46:02.894Z,68.97
2022-11-30T06:48:29.377Z,62.17
2022-11-30T06:50:55.812Z,69.05
2022-11-30T06:53:22.215Z,74.30
2022-11-30T06:55:48.617Z,59.85
2022-11-30T06:58:15.103Z,63.03
2022-11-30T07:00:41.561Z,60.92
2022-11-30T07:03:08.155Z,59.40
2022-11-30T07:05:35.552Z,56.53
2022-11-30T07:08:02.018Z,61.67
2022-11-30T07:10:28.577Z,65.07
2022-11-30T07:12:55.042Z,60.17
2022-11-30T07:15:21.838Z,66.72
2022-11-30T07:17:48.345Z,65.63
2022-11-30T07:20:14.912Z,70.90
2022-11-30T07:22:41.330Z,84.32
2022-11-30T07:25:08.747Z,62.97
2022-11-30T07:27:35.148Z,61.63
2022-11-30T07:30:02.825Z,65.47
2022-11-30T07:32:29.252Z,56.92
2022-11-30T07:34:55.629Z,65.50
2022-11-30T07:37:22.336Z,62.83
2022-11-30T07:39:48.903Z,61.50
2022-11-30T07:42:15.450Z,53.03
2022-11-30T07:44:41.850Z,71.00
2022-11-30T07:47:08.249Z,61.25
2022-11-30T07:49:34.705Z,66.03
2022-11-30T07:52:01.191Z,58.20
2022-11-30T07:54:27.581Z,65.10
2022-11-30T07:56:54.009Z,59.45
2022-11-30T07:59:22.003Z,66.18
2022-11-30T08:01:48.599Z,50.88
2022-11-30T08:04:15.293Z,59.65
2022-11-30T08:06:42.042Z,60.58
2022-11-30T08:09:10.719Z,54.53
2022-11-30T08:11:37.234Z,50.65
2022-11-30T08:14:03.747Z,43.60
2022-11-30T08:16:30.898Z,49.30
2022-11-30T08:18:58.204Z,53.10
2022-11-30T08:21:24.728Z,42.15
2022-11-30T08:23:52.715Z,59.45
2022-11-30T08:26:22.053Z,48.33
2022-11-30T08:28:49.345Z,46.90
2022-11-30T08:31:30.953Z,41.55
2022-11-30T08:34:02.206Z,46.28
2022-11-30T08:36:29.204Z,43.53
2022-11-30T08:38:57.206Z,49.65
2022-11-30T08:41:27.668Z,46.88
2022-11-30T08:43:54.208Z,42.50
2022-11-30T08:46:50.453Z,41.22
2022-11-30T08:49:20.801Z,48.40
2022-11-30T08:54:39.709Z,37.42
2022-11-30T08:57:06.264Z,49.33
2022-11-30T08:59:32.794Z,37.20
2022-11-30T09:01:59.231Z,37.65
2022-11-30T09:04:25.784Z,37.78
2022-11-30T09:06:52.316Z,39.30
2022-11-30T09:09:18.867Z,51.15
2022-11-30T09:11:45.347Z,48.58
2022-11-30T09:14:11.782Z,42.97
2022-11-30T09:16:38.229Z,40.50
2022-11-30T09:19:04.641Z,34.90
2022-11-30T09:21:31.108Z,37.75
2022-11-30T09:23:57.652Z,39.88
2022-11-30T09:26:24.398Z,40.17
2022-11-30T09:28:51.026Z,39.13
2022-11-30T09:31:19.327Z,36.13
2022-11-30T09:33:45.992Z,39.05
2022-11-30T09:36:14.029Z,33.03
2022-11-30T09:38:40.714Z,36.28
2022-11-30T09:41:32.752Z,35.25
2022-11-30T09:43:59.254Z,36.95
2022-11-30T09:46:30.711Z,38.17
2022-11-30T09:48:59.400Z,32.88
2022-11-30T09:51:46.736Z,37.05
2022-11-30T09:54:25.869Z,35.88
2022-11-30T09:56:52.281Z,37.40
2022-11-30T09:59:22.698Z,37.10
2022-11-30T10:01:56.438Z,37.60
2022-11-30T10:04:25.354Z,32.72
2022-11-30T10:07:35.845Z,32.25
2022-11-30T10:10:36.008Z,28.83
2022-11-30T10:13:09.183Z,39.13
2022-11-30T10:15:53.218Z,29.95
2022-11-30T10:18:27.367Z,31.58
2022-11-30T10:21:03.701Z,30.08
2022-11-30T10:24:17.861Z,31.50
2022-11-30T10:26:50.154Z,28.95
2022-11-30T10:29:18.554Z,31.05
2022-11-30T10:31:45.107Z,26.90
2022-11-30T10:34:17.393Z,28.92
2022-11-30T10:36:45.281Z,34.08
2022-11-30T10:39:30.661Z,25.98
2022-11-30T10:42:02.392Z,30.63
2022-11-30T10:45:09.955Z,29.75
2022-11-30T10:47:36.353Z,29.48
2022-11-30T10:50:06.420Z,32.55
2022-11-30T10:53:07.042Z,31.35
2022-11-30T10:55:35.963Z,29.00
2022-11-30T10:58:22.054Z,29.67
2022-11-30T11:01:09.874Z,32.10
2022-11-30T11:03:36.400Z,28.90
2022-11-30T11:06:20.636Z,31.95
2022-11-30T11:08:47.101Z,32.13
2022-11-30T11:11:29.869Z,31.15
2022-11-30T11:14:14.298Z,31.02
2022-11-30T11:16:57.195Z,30.67
2022-11-30T11:19:43.881Z,33.42
2022-11-30T11:22:24.166Z,32.70
2022-11-30T11:24:51.966Z,31.63
2022-11-30T11:27:29.334Z,35.35
2022-11-30T11:30:15.126Z,31.73
2022-11-30T11:32:41.699Z,30.02
2022-11-30T11:35:32.398Z,32.72
2022-11-30T11:37:58.814Z,33.33
2022-11-30T11:40:25.204Z,31.20
2022-11-30T11:42:53.077Z,31.90
2022-11-30T11:45:29.115Z,32.03
2022-11-30T11:47:59.469Z,27.38
2022-11-30T11:51:04.876Z,34.05
2022-11-30T11:53:18.422Z,31.45
2022-11-30T11:55:44.837Z,31.75
2022-11-30T11:58:21.878Z,30.65
2022-11-30T12:00:48.287Z,34.33
2022-11-30T12:03:33.315Z,28.10
2022-11-30T12:06:05.570Z,27.25
2022-11-30T12:08:31.916Z,31.63
2022-11-30T12:11:00.696Z,29.27
2022-11-30T12:13:47.299Z,33.20
2022-11-30T12:16:32.139Z,30.42
2022-11-30T12:19:16.840Z,23.90
2022-11-30T12:21:55.340Z,29.80
2022-11-30T12:25:06.144Z,32.15
2022-11-30T12:27:53.830Z,29.52
2022-11-30T12:30:26.895Z,30.65
2022-11-30T12:32:59.130Z,32.20
2022-11-30T12:35:36.706Z,30.77
2022-11-30T12:38:20.934Z,31.13
2022-11-30T12:41:02.429Z,30.38
2022-11-30T12:43:42.713Z,25.48
2022-11-30T12:46:19.582Z,28.40
2022-11-30T12:48:52.967Z,24.63
2022-11-30T12:51:47.137Z,26.05
2022-11-30T12:54:16.452Z,29.25
2022-11-30T12:57:13.261Z,27.13
2022-11-30T12:59:46.020Z,28.65
2022-11-30T13:02:46.503Z,28.23
2022-11-30T13:05:18.921Z,23.05
2022-11-30T13:07:50.065Z,25.58
2022-11-30T13:10:25.635Z,28.50
2022-11-30T13:12:52.141Z,29.38
2022-11-30T13:15:23.125Z,30.48
2022-11-30T13:17:49.552Z,33.78
2022-11-30T13:20:52.016Z,28.27
2022-11-30T13:23:27.418Z,29.85
2022-11-30T13:26:23.479Z,31.60
2022-11-30T13:29:05.744Z,31.77
2022-11-30T13:31:38.891Z,34.17
2022-11-30T13:34:23.307Z,28.00
2022-11-30T13:36:49.857Z,32.40
2022-11-30T13:39:24.015Z,33.40
2022-11-30T13:42:02.934Z,35.22
2022-11-30T13:44:36.744Z,31.48
2022-11-30T13:47:04.942Z,31.60
2022-11-30T13:49:34.837Z,33.42
2022-11-30T13:54:49.167Z,31.92
2022-11-30T13:57:24.758Z,36.75
2022-11-30T13:59:51.936Z,38.25
2022-11-30T14:02:33.722Z,38.15
2022-11-30T14:07:41.706Z,35.40
2022-11-30T14:10:27.594Z,38.90
2022-11-30T14:13:09.240Z,34.80
2022-11-30T14:15:38.815Z,39.42
2022-11-30T14:18:15.202Z,39.83
2022-11-30T14:20:47.511Z,42.30
2022-11-30T14:23:36.983Z,42.33
2022-11-30T14:26:10.845Z,40.30
2022-11-30T14:28:58.485Z,45.78
2022-11-30T14:31:26.563Z,45.90
2022-11-30T14:33:58.708Z,43.63
2022-11-30T14:36:27.088Z,46.20
2022-11-30T14:38:53.505Z,46.85
2022-11-30T14:41:25.628Z,42.45
2022-11-30T14:43:58.733Z,42.85
2022-11-30T14:46:25.296Z,42.13
2022-11-30T14:49:14.972Z,45.08
2022-11-30T14:51:43.036Z,45.92
2022-11-30T14:54:23.692Z,43.25
2022-11-30T14:56:52.150Z,49.08
2022-11-30T14:59:42.867Z,50.08
2022-11-30T15:02:18.593Z,58.92
2022-11-30T15:04:45.024Z,46.28
2022-11-30T15:07:14.882Z,48.33
2022-11-30T15:09:42.754Z,46.28
2022-11-30T15:12:09.219Z,48.13
2022-11-30T15:14:35.636Z,45.78
2022-11-30T15:17:02.046Z,47.92
2022-11-30T15:19:29.085Z,49.42
2022-11-30T15:21:56.232Z,51.33
2022-11-30T15:24:22.698Z,48.03
2022-11-30T15:26:57.664Z,54.42
2022-11-30T15:29:25.750Z,53.75
2022-11-30T15:31:52.497Z,55.05
2022-11-30T15:34:20.570Z,55.80
2022-11-30T15:36:47.064Z,55.13
2022-11-30T15:39:20.858Z,63.92
2022-11-30T15:41:47.297Z,65.57
2022-11-30T15:44:42.174Z,55.83
2022-11-30T15:47:25.530Z,55.65
2022-11-30T15:49:55.398Z,51.22
2022-11-30T15:54:55.921Z,51.30
2022-11-30T15:57:23.720Z,56.95
2022-11-30T16:00:15.003Z,59.42
2022-11-30T16:02:41.535Z,53.47
2022-11-30T16:05:14.845Z,57.90
2022-11-30T16:07:57.652Z,52.50
2022-11-30T16:10:32.940Z,57.65
2022-11-30T16:12:59.347Z,61.10
2022-11-30T16:15:30.367Z,58.38
2022-11-30T16:18:00.548Z,63.85
2022-11-30T16:20:26.975Z,54.85
2022-11-30T16:22:53.361Z,62.05
2022-11-30T16:25:22.772Z,56.63
2022-11-30T16:27:49.498Z,49.33
2022-11-30T16:30:17.520Z,53.55
2022-11-30T16:32:44.001Z,57.15
2022-11-30T16:35:29.848Z,54.67
2022-11-30T16:37:56.258Z,50.15
2022-11-30T16:40:22.660Z,53.17
2022-11-30T16:42:49.242Z,52.33
2022-11-30T16:45:17.951Z,51.95
2022-11-30T16:47:44.451Z,50.28
2022-11-30T16:50:11.477Z,60.42
2022-11-30T16:52:38.266Z,49.30
2022-11-30T16:55:19.630Z,48.22
2022-11-30T16:57:46.249Z,53.33
2022-11-30T17:00:13.850Z,52.05
2022-11-30T17:02:44.819Z,50.08
2022-11-30T17:05:12.901Z,50.13
2022-11-30T17:07:39.435Z,48.53
2022-11-30T17:10:06.519Z,58.08
2022-11-30T17:12:32.935Z,49.60
2022-11-30T17:14:59.322Z,51.75
2022-11-30T17:17:25.757Z,56.83
2022-11-30T17:19:52.166Z,57.58
2022-11-30T17:22:18.606Z,55.05
2022-11-30T17:24:45.168Z,55.50
2022-11-30T17:27:11.618Z,50.97
2022-11-30T17:29:38.723Z,55.13
2022-11-30T17:32:05.326Z,54.97
2022-11-30T17:34:31.745Z,50.83
2022-11-30T17:36:58.158Z,43.28
2022-11-30T17:39:24.549Z,51.85
2022-11-30T17:41:50.948Z,50.67
2022-11-30T17:44:17.357Z,50.20
2022-11-30T17:46:47.989Z,46.63
2022-11-30T17:49:14.817Z,46.20
2022-11-30T17:51:41.357Z,51.38
2022-11-30T17:54:07.917Z,49.08
2022-11-30T17:56:34.366Z,48.80
2022-11-30T17:59:00.793Z,47.78
2022-11-30T18:01:27.362Z,50.00
2022-11-30T18:03:54.874Z,50.67
2022-11-30T18:06:21.346Z,54.10
2022-11-30T18:08:47.823Z,53.13
2022-11-30T18:11:15.984Z,56.70
2022-11-30T18:13:42.482Z,52.42
2022-11-30T18:16:10.518Z,53.08
2022-11-30T18:18:37.040Z,54.95
2022-11-30T18:21:26.892Z,56.58
2022-11-30T18:23:53.340Z,55.95
2022-11-30T18:26:21.129Z,55.72
2022-11-30T18:28:51.459Z,51.40
2022-11-30T18:31:17.904Z,53.42
2022-11-30T18:33:44.387Z,61.67
2022-11-30T18:36:10.865Z,59.47
2022-11-30T18:38:38.728Z,49.78
2022-11-30T18:41:05.896Z,59.20
2022-11-30T18:43:32.340Z,59.85
2022-11-30T18:46:05.626Z,70.68
2022-11-30T18:48:32.093Z,61.25
2022-11-30T18:50:58.562Z,60.15
2022-11-30T18:53:24.981Z,58.60
2022-11-30T18:55:51.430Z,67.18
2022-11-30T18:58:17.820Z,57.30
2022-11-30T19:00:44.243Z,61.00
2022-11-30T19:03:11.161Z,61.75
2022-11-30T19:05:37.667Z,67.68
2022-11-30T19:08:05.923Z,60.40
2022-11-30T19:10:35.839Z,74.95
2022-11-30T19:15:28.829Z,58.78
2022-11-30T19:17:55.733Z,66.38
2022-11-30T19:20:22.692Z,63.65
2022-11-30T19:22:49.236Z,65.15
2022-11-30T19:25:18.948Z,71.85
2022-11-30T19:27:45.726Z,64.63
2022-11-30T19:30:12.766Z,77.13
2022-11-30T19:32:39.182Z,70.25
2022-11-30T19:35:06.040Z,75.10
2022-11-30T19:37:32.495Z,70.72
2022-11-30T19:39:58.895Z,64.40
2022-11-30T19:42:25.380Z,76.28
2022-11-30T19:44:51.886Z,65.60
2022-11-30T19:47:18.327Z,70.47
2022-11-30T19:49:44.796Z,72.28
2022-11-30T19:52:11.191Z,67.28
2022-11-30T19:54:37.637Z,65.15
2022-11-30T19:57:04.102Z,67.28
2022-11-30T19:59:30.606Z,67.90
2022-11-30T20:01:57.058Z,63.33
2022-11-30T20:04:23.602Z,60.75
2022-11-30T20:06:50.095Z,61.75
2022-11-30T20:09:17.775Z,65.88
2022-11-30T20:11:44.217Z,57.17
2022-11-30T20:14:17.064Z,66.47
2022-11-30T20:16:43.497Z,56.28
2022-11-30T20:19:10.288Z,70.95
2022-11-30T20:21:36.836Z,63.85
2022-11-30T20:24:05.324Z,58.95
2022-11-30T20:26:42.204Z,59.95
2022-11-30T20:29:13.503Z,54.47
2022-11-30T20:31:40.011Z,55.63
2022-11-30T20:34:06.477Z,57.90
2022-11-30T20:36:32.916Z,64.65
2022-11-30T20:38:59.407Z,57.50
2022-11-30T20:41:26.698Z,56.30
2022-11-30T20:43:53.159Z,62.35
2022-11-30T20:46:20.471Z,57.78
2022-11-30T20:48:47.310Z,58.30
2022-11-30T20:51:30.590Z,57.40
2022-11-30T20:54:02.917Z,60.13
2022-11-30T20:56:29.412Z,57.97
2022-11-30T20:58:55.944Z,57.33
2022-11-30T21:01:22.641Z,58.53
2022-11-30T21:03:49.295Z,55.38
2022-11-30T21:06:15.922Z,55.47
2022-11-30T21:08:42.575Z,60.58
2022-11-30T21:11:14.209Z,55.45
2022-11-30T21:13:41.136Z,53.63
2022-11-30T21:16:08.691Z,56.22
2022-11-30T21:18:35.700Z,56.08
2022-11-30T21:21:06.504Z,52.42
2022-11-30T21:23:32.910Z,52.88
2022-11-30T21:26:04.121Z,54.42
2022-11-30T21:28:36.375Z,53.60
2022-11-30T21:31:04.649Z,58.58
2022-11-30T21:33:31.069Z,55.70
2022-11-30T21:35:57.621Z,51.40
2022-11-30T21:38:24.124Z,58.80
2022-11-30T21:40:57.331Z,61.40
2022-11-30T21:43:23.819Z,59.70
2022-11-30T21:46:07.178Z,55.35
2022-11-30T21:48:35.449Z,57.72
2022-11-30T21:51:06.649Z,60.45
2022-11-30T21:53:36.187Z,51.92
2022-11-30T21:56:06.487Z,57.08
2022-11-30T21:58:33.045Z,60.17
2022-11-30T22:01:00.767Z,55.80
2022-11-30T22:03:27.324Z,62.72
2022-11-30T22:06:00.417Z,58.50
2022-11-30T22:08:26.960Z,61.05
2022-11-30T22:10:53.436Z,60.33
2022-11-30T22:13:19.903Z,59.50
2022-11-30T22:15:46.466Z,62.22
2022-11-30T22:18:12.918Z,57.85
2022-11-30T22:20:39.371Z,56.00
2022-11-30T22:23:05.785Z,56.28
2022-11-30T22:25:32.246Z,61.05
2022-11-30T22:27:58.643Z,62.63
2022-11-30T22:30:25.071Z,56.03
2022-11-30T22:32:51.574Z,56.00
2022-11-30T22:35:18.012Z,50.13
2022-11-30T22:37:44.414Z,56.08
2022-11-30T22:40:11.427Z,56.85
2022-11-30T22:42:37.844Z,56.22
2022-11-30T22:45:04.622Z,52.58
2022-11-30T22:47:31.072Z,54.08
2022-11-30T22:49:57.532Z,50.78
2022-11-30T22:52:42.403Z,53.20
2022-11-30T22:55:10.460Z,56.63
2022-11-30T22:57:38.946Z,56.08
2022-11-30T23:00:05.884Z,58.70
2022-11-30T23:02:32.312Z,55.17
2022-11-30T23:04:58.771Z,55.05
2022-11-30T23:07:30.386Z,61.47
2022-11-30T23:09:58.324Z,55.63
2022-11-30T23:12:50.915Z,55.38
2022-11-30T23:15:11.263Z,58.42
2022-11-30T23:17:37.744Z,54.20
2022-11-30T23:20:04.615Z,58.05
2022-11-30T23:22:31.027Z,51.88
2022-11-30T23:24:57.428Z,54.97
2022-11-30T23:27:23.815Z,54.00
2022-11-30T23:29:50.388Z,52.95
2022-11-30T23:32:17.007Z,58.75
2022-11-30T23:34:46.873Z,54.50
2022-11-30T23:37:15.791Z,50.97
2022-11-30T23:39:42.206Z,55.95
2022-11-30T23:42:08.577Z,57.92
2022-11-30T23:44:34.999Z,54.90
2022-11-30T23:47:01.486Z,54.25
2022-11-30T23:49:27.916Z,52.70
2022-11-30T23:51:54.355Z,52.13
2022-11-30T23:54:20.931Z,51.35
2022-11-30T23:56:47.392Z,54.53
2022-11-30T23:59:13.794Z,60.97
